Time;durP1;ratioP1;P1;durP2;ratioP2;P2;SDS_P1;SDS_P2;PMS_P1;PMS_P2;Temp;Humidity;BMP_temperature;BMP_pressure;BME280_temperature;BME280_humidity;BME280_pressure;Samples;Min_cycle;Max_cycle;Signal;HPM_P1;HPM_P2
2023/09/09 00:01:32;;;;;;;18.53;16.73;;;20.80;99.90;;;;;;5138414;27;20095;-73
2023/09/09 00:03:58;;;;;;;19.17;17.27;;;20.80;99.90;;;;;;5155949;27;20130;-73
2023/09/09 00:06:24;;;;;;;18.97;16.93;;;20.70;99.90;;;;;;5137604;27;20039;-73
2023/09/09 00:08:50;;;;;;;18.97;17.07;;;20.70;99.90;;;;;;5120288;27;20043;-73
2023/09/09 00:11:16;;;;;;;19.00;17.30;;;20.70;99.90;;;;;;5120625;27;20073;-73
2023/09/09 00:13:41;;;;;;;18.57;16.50;;;20.70;99.90;;;;;;5155900;27;20065;-73
2023/09/09 00:16:09;;;;;;;18.40;16.67;;;20.70;99.90;;;;;;5137535;27;20053;-73
2023/09/09 00:18:34;;;;;;;17.07;15.37;;;20.60;99.90;;;;;;5137351;27;20042;-73
2023/09/09 00:21:00;;;;;;;17.90;16.00;;;20.60;99.90;;;;;;5155274;27;20455;-73
2023/09/09 00:23:26;;;;;;;18.07;16.27;;;20.50;99.90;;;;;;5120334;27;20047;-73
2023/09/09 00:25:52;;;;;;;17.93;16.23;;;20.50;99.90;;;;;;5120153;27;20151;-72
2023/09/09 00:28:20;;;;;;;18.13;16.33;;;20.50;99.90;;;;;;5137305;27;20049;-73
2023/09/09 00:30:46;;;;;;;17.57;15.87;;;20.50;99.90;;;;;;5136935;27;20184;-73
2023/09/09 00:33:11;;;;;;;17.37;15.57;;;20.50;99.90;;;;;;5120326;27;20070;-73
2023/09/09 00:35:38;;;;;;;17.03;15.43;;;20.50;99.90;;;;;;5155579;27;20407;-73
2023/09/09 00:38:06;;;;;;;20.77;15.77;;;20.50;99.90;;;;;;5119958;27;20043;-73
2023/09/09 00:40:32;;;;;;;17.47;15.87;;;20.40;99.90;;;;;;5155180;27;20486;-73
2023/09/09 00:42:58;;;;;;;18.50;16.47;;;20.40;99.90;;;;;;5136431;27;20138;-73
2023/09/09 00:45:25;;;;;;;18.13;16.33;;;20.40;99.90;;;;;;5155286;27;20146;-73
2023/09/09 00:47:51;;;;;;;16.53;14.93;;;20.40;99.90;;;;;;5136827;27;20151;-73
2023/09/09 00:50:16;;;;;;;21.97;19.57;;;20.30;99.90;;;;;;5119951;27;20419;-73
2023/09/09 00:52:43;;;;;;;18.50;16.70;;;20.30;99.90;;;;;;5136655;27;20058;-76
2023/09/09 00:55:11;;;;;;;18.63;16.70;;;20.30;99.90;;;;;;5155221;27;20039;-73
2023/09/09 00:57:37;;;;;;;18.53;16.83;;;20.30;99.90;;;;;;5137076;27;20146;-73
2023/09/09 01:00:09;;;;;;;17.97;16.17;;;20.20;99.90;;;;;;5136337;27;20112;-73
2023/09/09 01:02:39;;;;;;;17.73;15.97;;;20.20;99.90;;;;;;5120763;27;20085;-73
2023/09/09 01:05:07;;;;;;;18.63;16.40;;;20.20;99.90;;;;;;5136383;27;20041;-72
2023/09/09 01:07:46;;;;;;;18.27;16.57;;;20.20;99.90;;;;;;5155053;27;20038;-72
2023/09/09 01:10:13;;;;;;;19.63;17.53;;;20.20;99.90;;;;;;5119958;27;20467;-73
2023/09/09 01:12:41;;;;;;;18.60;16.80;;;20.10;99.90;;;;;;5136503;27;20054;-73
2023/09/09 01:15:07;;;;;;;18.20;16.27;;;20.10;99.90;;;;;;5119398;27;20089;-73
2023/09/09 01:17:34;;;;;;;19.87;17.37;;;20.10;99.90;;;;;;5119605;27;20042;-73
2023/09/09 01:20:06;;;;;;;19.17;17.23;;;20.10;99.90;;;;;;5154454;27;20043;-73
2023/09/09 01:22:35;;;;;;;17.63;15.80;;;20.10;99.90;;;;;;5154957;27;20078;-73
2023/09/09 01:25:04;;;;;;;16.90;14.93;;;20.00;99.90;;;;;;5119071;27;20043;-72
2023/09/09 01:27:30;;;;;;;18.40;15.57;;;20.00;99.90;;;;;;5136570;27;20043;-73
2023/09/09 01:29:55;;;;;;;17.83;16.03;;;20.00;99.90;;;;;;5135572;27;20103;-73
2023/09/09 01:32:21;;;;;;;19.67;17.00;;;20.00;99.90;;;;;;5136192;27;20085;-73
2023/09/09 01:34:48;;;;;;;17.10;15.40;;;20.00;99.90;;;;;;5118926;27;20486;-78
2023/09/09 01:37:14;;;;;;;15.77;14.37;;;19.90;99.90;;;;;;5136256;27;20042;-73
2023/09/09 01:39:39;;;;;;;15.77;14.27;;;19.90;99.90;;;;;;5119172;27;20043;-73
2023/09/09 01:42:05;;;;;;;16.20;14.50;;;19.90;99.90;;;;;;5153846;27;20511;-72
2023/09/09 01:44:31;;;;;;;16.57;15.03;;;19.90;99.90;;;;;;5136228;27;20058;-73
2023/09/09 01:46:56;;;;;;;16.73;15.13;;;19.90;99.90;;;;;;5118793;27;20074;-73
2023/09/09 01:49:22;;;;;;;17.50;15.90;;;19.80;99.90;;;;;;5135967;27;20118;-72
2023/09/09 01:51:48;;;;;;;19.13;17.30;;;19.80;99.90;;;;;;5136120;27;20119;-73
2023/09/09 01:54:14;;;;;;;18.17;16.47;;;19.80;99.90;;;;;;5118841;27;20458;-73
2023/09/09 01:56:39;;;;;;;16.93;15.33;;;19.80;99.90;;;;;;5102086;27;20490;-72
2023/09/09 01:59:05;;;;;;;19.33;16.30;;;19.80;99.90;;;;;;5118501;27;20043;-73
2023/09/09 02:01:31;;;;;;;20.67;17.07;;;19.80;99.90;;;;;;5118712;27;20085;-73
2023/09/09 02:03:56;;;;;;;19.40;17.40;;;19.80;99.90;;;;;;5135598;27;20074;-72
2023/09/09 02:06:22;;;;;;;19.00;17.00;;;19.70;99.90;;;;;;5154187;27;20046;-72
2023/09/09 02:08:48;;;;;;;18.30;16.47;;;19.70;99.90;;;;;;5135893;27;20125;-72
2023/09/09 02:11:13;;;;;;;19.17;17.27;;;19.70;99.90;;;;;;5135459;27;20052;-73
2023/09/09 02:13:39;;;;;;;19.07;17.20;;;19.70;99.90;;;;;;5135825;27;20047;-73
2023/09/09 02:16:06;;;;;;;19.63;17.63;;;19.70;99.90;;;;;;5135524;27;20093;-73
2023/09/09 02:18:32;;;;;;;18.37;16.57;;;19.70;99.90;;;;;;5154166;27;20039;-73
2023/09/09 02:20:58;;;;;;;18.90;17.07;;;19.70;99.90;;;;;;5135591;27;20367;-73
2023/09/09 02:23:24;;;;;;;19.80;18.00;;;19.60;99.90;;;;;;5135613;27;20474;-73
2023/09/09 02:25:50;;;;;;;19.43;17.63;;;19.60;99.90;;;;;;5118569;27;20091;-73
2023/09/09 02:28:17;;;;;;;20.60;18.60;;;19.60;99.90;;;;;;5153803;27;20129;-73
2023/09/09 02:30:44;;;;;;;20.27;18.13;;;19.70;99.90;;;;;;5135872;27;20064;-73
2023/09/09 02:33:10;;;;;;;20.90;19.00;;;19.60;99.90;;;;;;5118512;27;20043;-73
2023/09/09 02:35:43;;;;;;;19.77;17.87;;;19.60;99.90;;;;;;5154001;27;20039;-73
2023/09/09 02:38:09;;;;;;;22.67;17.90;;;19.60;99.90;;;;;;5135532;27;20095;-73
2023/09/09 02:40:35;;;;;;;19.57;17.67;;;19.60;99.90;;;;;;5135652;27;20054;-73
2023/09/09 02:43:01;;;;;;;21.43;19.13;;;19.60;99.90;;;;;;5157476;27;20476;-73
2023/09/09 02:45:26;;;;;;;19.17;17.27;;;19.50;99.90;;;;;;5139433;27;20050;-73
2023/09/09 02:47:52;;;;;;;20.93;18.80;;;19.50;99.90;;;;;;5157866;27;20107;-73
2023/09/09 02:50:18;;;;;;;20.27;18.30;;;19.50;99.90;;;;;;5157425;27;20125;-73
2023/09/09 02:52:44;;;;;;;21.73;18.97;;;19.50;99.90;;;;;;5157744;27;20053;-73
2023/09/09 02:55:09;;;;;;;21.13;19.10;;;19.40;99.90;;;;;;5138886;27;20376;-73
2023/09/09 02:57:35;;;;;;;19.90;17.83;;;19.40;99.90;;;;;;5139324;27;20050;-73
2023/09/09 03:00:01;;;;;;;19.00;17.30;;;19.40;99.90;;;;;;5138337;27;20442;-73
2023/09/09 03:02:26;;;;;;;19.93;17.87;;;19.40;99.90;;;;;;5138980;27;20043;-73
2023/09/09 03:04:52;;;;;;;19.90;18.10;;;19.40;99.90;;;;;;5122068;27;20035;-73
2023/09/09 03:07:19;;;;;;;21.03;19.03;;;19.40;99.90;;;;;;5138825;27;20050;-73
2023/09/09 03:09:45;;;;;;;20.00;17.87;;;19.30;99.90;;;;;;5121584;27;20497;-73
2023/09/09 03:12:11;;;;;;;17.83;15.93;;;19.40;99.90;;;;;;5138629;27;20099;-73
2023/09/09 03:14:37;;;;;;;15.63;14.13;;;19.30;99.90;;;;;;5139002;27;20121;-73
2023/09/09 03:17:02;;;;;;;16.33;14.73;;;19.30;99.90;;;;;;5138542;27;20108;-73
2023/09/09 03:19:28;;;;;;;15.77;14.23;;;19.30;99.90;;;;;;5156741;27;20043;-73
2023/09/09 03:21:54;;;;;;;15.10;13.60;;;19.20;99.90;;;;;;5121645;27;20078;-73
2023/09/09 03:24:20;;;;;;;15.10;13.70;;;19.30;99.90;;;;;;5156861;27;20147;-73
2023/09/09 03:26:46;;;;;;;15.87;14.37;;;19.20;99.90;;;;;;5121579;27;20516;-73
2023/09/09 03:29:11;;;;;;;15.60;14.00;;;19.20;99.90;;;;;;5138338;27;20057;-72
2023/09/09 03:31:37;;;;;;;16.00;14.40;;;19.20;99.90;;;;;;5156894;27;20432;-72
2023/09/09 03:34:03;;;;;;;15.30;13.80;;;19.20;99.90;;;;;;5156563;27;20137;-73
2023/09/09 03:36:29;;;;;;;15.53;13.90;;;19.20;99.90;;;;;;5156803;27;20078;-72
2023/09/09 03:38:55;;;;;;;16.80;15.03;;;19.10;99.90;;;;;;5138483;27;20096;-72
2023/09/09 03:41:20;;;;;;;17.70;15.87;;;19.10;99.90;;;;;;5156149;27;20046;-72
2023/09/09 03:43:46;;;;;;;17.83;15.70;;;19.10;99.90;;;;;;5120573;27;20141;-72
2023/09/09 03:46:12;;;;;;;18.00;16.03;;;19.00;99.90;;;;;;5138047;27;20082;-73
2023/09/09 03:48:38;;;;;;;17.87;16.07;;;19.00;99.90;;;;;;5138236;27;20042;-72
2023/09/09 03:51:04;;;;;;;18.50;16.60;;;19.00;99.90;;;;;;5120813;27;20103;-76
2023/09/09 03:53:30;;;;;;;17.80;16.10;;;19.00;99.90;;;;;;5120597;27;20053;-72
2023/09/09 03:55:55;;;;;;;19.27;16.67;;;19.00;99.90;;;;;;5156548;27;20126;-72
2023/09/09 03:58:21;;;;;;;20.60;18.47;;;19.00;99.90;;;;;;5155797;27;20082;-72
2023/09/09 04:00:47;;;;;;;18.70;16.90;;;19.00;99.90;;;;;;5137911;27;20053;-72
2023/09/09 04:03:13;;;;;;;19.00;17.03;;;19.00;99.90;;;;;;5137298;27;20429;-72
2023/09/09 04:05:40;;;;;;;20.17;18.13;;;19.00;99.90;;;;;;5137935;27;20046;-72
2023/09/09 04:08:09;;;;;;;20.97;18.97;;;19.00;99.90;;;;;;5137524;27;20080;-77
2023/09/09 04:10:37;;;;;;;20.03;18.03;;;19.00;99.90;;;;;;5156417;27;20587;-72
2023/09/09 04:13:03;;;;;;;20.17;18.27;;;19.00;99.90;;;;;;5156070;27;20046;-72
2023/09/09 04:15:29;;;;;;;20.03;17.50;;;18.90;99.90;;;;;;5155864;27;20045;-72
2023/09/09 04:17:55;;;;;;;18.17;16.47;;;18.90;99.90;;;;;;5156022;27;20395;-72
2023/09/09 04:20:20;;;;;;;19.47;17.53;;;18.90;99.90;;;;;;5119930;27;20046;-72
2023/09/09 04:22:46;;;;;;;18.93;16.93;;;18.90;99.90;;;;;;5137486;27;20050;-72
2023/09/09 04:25:11;;;;;;;18.23;16.53;;;18.90;99.90;;;;;;5137084;27;20045;-73
2023/09/09 04:27:37;;;;;;;19.03;17.20;;;18.90;99.90;;;;;;5120769;27;20126;-72
2023/09/09 04:30:03;;;;;;;20.37;18.37;;;18.90;99.90;;;;;;5137358;27;20065;-72
2023/09/09 04:32:31;;;;;;;19.97;17.97;;;18.90;99.90;;;;;;5136918;27;20046;-72
2023/09/09 04:34:57;;;;;;;20.17;18.27;;;18.80;99.90;;;;;;5103328;27;20486;-72
2023/09/09 04:37:24;;;;;;;18.93;17.13;;;18.70;99.90;;;;;;5155277;27;20043;-73
2023/09/09 04:39:50;;;;;;;19.77;17.77;;;18.70;99.90;;;;;;5137040;27;20046;-72
2023/09/09 04:42:17;;;;;;;20.17;18.30;;;18.70;99.90;;;;;;5119865;27;20129;-73
2023/09/09 04:44:43;;;;;;;19.60;17.70;;;18.60;99.90;;;;;;5136828;27;20050;-73
2023/09/09 04:47:08;;;;;;;19.10;17.13;;;18.60;99.90;;;;;;5155418;27;20046;-72
2023/09/09 04:49:34;;;;;;;20.03;17.93;;;18.60;99.90;;;;;;5136890;27;20463;-73
2023/09/09 04:52:00;;;;;;;19.77;17.87;;;18.60;99.90;;;;;;5103244;27;20150;-72
2023/09/09 04:54:26;;;;;;;19.60;17.63;;;18.60;99.90;;;;;;5155031;27;20046;-72
2023/09/09 04:56:51;;;;;;;21.00;18.90;;;18.60;99.90;;;;;;5136919;27;20046;-72
2023/09/09 04:59:17;;;;;;;20.63;18.63;;;18.60;99.90;;;;;;5119501;27;20089;-72
2023/09/09 05:01:43;;;;;;;20.70;18.33;;;18.50;99.90;;;;;;5155379;27;20046;-72
2023/09/09 05:04:08;;;;;;;20.20;18.23;;;18.50;99.90;;;;;;5119011;27;20123;-72
2023/09/09 05:06:34;;;;;;;19.83;17.80;;;18.50;99.90;;;;;;5118874;27;20050;-72
2023/09/09 05:09:00;;;;;;;20.67;18.67;;;18.50;99.90;;;;;;5136752;27;20134;-72
2023/09/09 05:11:26;;;;;;;20.77;18.33;;;18.50;99.90;;;;;;5102324;27;20050;-72
2023/09/09 05:13:52;;;;;;;19.70;17.80;;;18.50;99.90;;;;;;5155355;27;20055;-72
2023/09/09 05:16:17;;;;;;;20.17;18.27;;;18.50;99.90;;;;;;5119011;27;20417;-73
2023/09/09 05:18:43;;;;;;;20.20;18.10;;;18.50;99.90;;;;;;5136705;27;20074;-72
2023/09/09 05:21:09;;;;;;;19.33;17.47;;;18.50;99.90;;;;;;5136357;27;20543;-72
2023/09/09 05:23:35;;;;;;;19.27;17.43;;;18.50;99.90;;;;;;5154535;27;20038;-73
2023/09/09 05:26:01;;;;;;;20.00;18.00;;;18.50;99.90;;;;;;5136306;27;20069;-73
2023/09/09 05:28:27;;;;;;;19.87;17.87;;;18.50;99.90;;;;;;5102187;27;20195;-73
2023/09/09 05:30:53;;;;;;;20.00;18.00;;;18.50;99.90;;;;;;5119138;27;20156;-73
2023/09/09 05:33:19;;;;;;;20.40;18.30;;;18.50;99.90;;;;;;5102229;27;20046;-73
2023/09/09 05:35:48;;;;;;;20.13;18.23;;;18.50;99.90;;;;;;5136086;27;20038;-73
2023/09/09 05:38:13;;;;;;;21.20;19.10;;;18.50;99.90;;;;;;5119178;27;20075;-73
2023/09/09 05:40:39;;;;;;;19.83;18.03;;;18.60;99.90;;;;;;5154213;27;20042;-73
2023/09/09 05:43:05;;;;;;;19.07;17.27;;;18.60;99.90;;;;;;5154755;27;20507;-73
2023/09/09 05:45:31;;;;;;;19.27;17.50;;;18.60;99.90;;;;;;5135262;27;20607;-73
2023/09/09 05:47:56;;;;;;;19.87;17.87;;;18.70;99.90;;;;;;5118983;27;20055;-73
2023/09/09 05:50:22;;;;;;;19.57;17.73;;;18.70;99.90;;;;;;5135742;27;20061;-73
2023/09/09 05:52:48;;;;;;;19.93;17.93;;;18.80;99.90;;;;;;5135942;27;20474;-72
2023/09/09 05:55:14;;;;;;;18.87;17.17;;;18.80;99.90;;;;;;5136000;27;20042;-73
2023/09/09 05:57:39;;;;;;;20.47;18.37;;;18.90;99.90;;;;;;5101787;27;20051;-73
2023/09/09 06:00:06;;;;;;;20.27;18.17;;;18.90;99.90;;;;;;5154308;27;20126;-72
2023/09/09 06:02:32;;;;;;;19.60;17.70;;;18.90;99.90;;;;;;5154073;27;20050;-73
2023/09/09 06:04:57;;;;;;;20.87;18.97;;;19.00;99.90;;;;;;5135716;27;20043;-73
2023/09/09 06:07:23;;;;;;;20.60;18.70;;;19.10;99.90;;;;;;5101791;27;20137;-73
2023/09/09 06:09:49;;;;;;;19.37;17.40;;;19.40;99.90;;;;;;5135785;27;20034;-73
2023/09/09 06:12:15;;;;;;;18.60;16.87;;;19.80;99.90;;;;;;5135842;27;20042;-73
2023/09/09 06:14:40;;;;;;;19.47;17.57;;;20.40;99.90;;;;;;5153939;27;20889;-73
2023/09/09 06:17:06;;;;;;;17.93;16.33;;;21.00;99.90;;;;;;5138353;27;20126;-73
2023/09/09 06:19:32;;;;;;;20.67;18.77;;;21.60;99.90;;;;;;5105625;27;20038;-73
2023/09/09 06:21:57;;;;;;;18.73;16.87;;;22.00;99.90;;;;;;5122915;27;20051;-73
2023/09/09 06:24:23;;;;;;;19.07;17.07;;;22.30;99.90;;;;;;5122710;27;20055;-74
2023/09/09 06:26:49;;;;;;;18.90;17.10;;;22.20;99.90;;;;;;5139966;27;20042;-73
2023/09/09 06:29:15;;;;;;;18.80;16.90;;;22.40;99.90;;;;;;5158190;27;20505;-73
2023/09/09 06:31:41;;;;;;;19.40;17.50;;;22.60;99.90;;;;;;5122476;27;20505;-73
2023/09/09 06:34:09;;;;;;;19.53;17.73;;;23.10;99.90;;;;;;5122496;27;20486;-73
2023/09/09 06:36:35;;;;;;;19.73;17.63;;;23.70;99.90;;;;;;5157775;27;20054;-73
2023/09/09 06:39:00;;;;;;;21.33;19.17;;;24.40;99.90;;;;;;5139746;27;20042;-73
2023/09/09 06:41:26;;;;;;;20.53;18.33;;;25.00;99.90;;;;;;5104963;27;20517;-74
2023/09/09 06:43:52;;;;;;;20.27;18.37;;;25.60;99.90;;;;;;5139226;27;20055;-73
2023/09/09 06:46:18;;;;;;;21.33;18.57;;;25.90;99.90;;;;;;5122448;27;20130;-73
2023/09/09 06:48:43;;;;;;;21.80;19.50;;;26.30;99.90;;;;;;5139193;27;20394;-73
2023/09/09 06:51:09;;;;;;;21.90;19.80;;;26.70;99.90;;;;;;5122056;27;20138;-73
2023/09/09 06:53:35;;;;;;;21.47;19.37;;;27.10;99.90;;;;;;5121663;27;20074;-73
2023/09/09 06:56:01;;;;;;;21.43;19.43;;;27.60;99.90;;;;;;5156942;27;20125;-73
2023/09/09 06:58:26;;;;;;;20.67;18.77;;;27.90;99.90;;;;;;5156774;27;20439;-73
2023/09/09 07:00:52;;;;;;;21.93;19.93;;;28.20;99.90;;;;;;5157055;27;20051;-74
2023/09/09 07:03:19;;;;;;;20.93;18.73;;;28.40;99.90;;;;;;5138761;27;20486;-73
2023/09/09 07:05:45;;;;;;;23.13;20.92;;;28.70;99.90;;;;;;5138206;27;20070;-73
2023/09/09 07:08:10;;;;;;;22.25;20.15;;;28.90;99.90;;;;;;5157063;27;20047;-73
2023/09/09 07:10:36;;;;;;;23.65;21.45;;;29.20;99.90;;;;;;5138775;27;20039;-73
2023/09/09 07:13:03;;;;;;;22.83;20.10;;;29.40;99.90;;;;;;5105001;27;20047;-73
2023/09/09 07:15:29;;;;;;;20.98;18.83;;;29.70;99.70;;;;;;5121491;27;20047;-75
2023/09/09 07:17:55;;;;;;;21.42;19.38;;;30.00;97.80;;;;;;5139098;27;20053;-75
2023/09/09 07:20:21;;;;;;;21.67;19.67;;;30.40;96.40;;;;;;5138714;27;20047;-72
2023/09/09 07:22:47;;;;;;;22.27;19.90;;;30.70;94.50;;;;;;5156939;27;20192;-72
2023/09/09 07:25:13;;;;;;;22.00;20.10;;;30.90;92.50;;;;;;5138853;27;20494;-72
2023/09/09 07:27:39;;;;;;;23.13;20.92;;;31.30;90.60;;;;;;5137740;27;20050;-72
2023/09/09 07:30:05;;;;;;;23.95;21.75;;;31.60;88.00;;;;;;5139179;27;20050;-72
2023/09/09 07:32:31;;;;;;;25.90;23.48;;;32.00;84.10;;;;;;5156848;27;20047;-73
2023/09/09 07:35:00;;;;;;;27.75;25.35;;;32.40;80.50;;;;;;5157059;27;20039;-73
2023/09/09 07:37:25;;;;;;;29.48;26.75;;;32.70;77.20;;;;;;5156951;27;20087;-72
2023/09/09 07:39:52;;;;;;;27.45;24.60;;;33.00;74.50;;;;;;5156550;27;20046;-73
2023/09/09 07:42:18;;;;;;;28.48;25.98;;;33.00;72.50;;;;;;5156901;27;20102;-73
2023/09/09 07:44:45;;;;;;;30.60;27.83;;;33.00;72.30;;;;;;5137920;27;20058;-73
2023/09/09 07:47:11;;;;;;;30.38;27.58;;;32.70;72.70;;;;;;5138336;27;20054;-72
2023/09/09 07:49:37;;;;;;;33.28;30.20;;;31.90;75.30;;;;;;5156549;27;20107;-73
2023/09/09 07:52:03;;;;;;;33.45;30.48;;;31.30;80.40;;;;;;5121027;27;20054;-74
2023/09/09 07:54:30;;;;;;;34.35;31.05;;;30.60;87.40;;;;;;5156241;27;20051;-72
2023/09/09 07:56:56;;;;;;;31.65;28.77;;;30.10;92.30;;;;;;5137591;27;20046;-72
2023/09/09 07:59:22;;;;;;;33.00;29.88;;;29.70;94.00;;;;;;5120942;27;20489;-72
2023/09/09 08:01:48;;;;;;;31.27;28.27;;;29.20;95.90;;;;;;5103820;27;20183;-72
2023/09/09 08:04:14;;;;;;;30.42;27.67;;;28.90;97.40;;;;;;5156386;27;20082;-72
2023/09/09 08:06:40;;;;;;;29.92;27.13;;;28.60;98.40;;;;;;5137569;27;20039;-72
2023/09/09 08:09:06;;;;;;;28.92;26.38;;;28.40;99.20;;;;;;5137804;27;20043;-72
2023/09/09 08:11:31;;;;;;;27.20;24.63;;;28.20;99.80;;;;;;5138036;27;20058;-72
2023/09/09 08:13:57;;;;;;;27.90;25.00;;;28.00;99.90;;;;;;5120658;27;20509;-72
2023/09/09 08:16:23;;;;;;;28.05;25.35;;;27.90;99.90;;;;;;5120870;27;20125;-72
2023/09/09 08:18:49;;;;;;;25.63;23.30;;;27.80;99.90;;;;;;5137309;27;20098;-72
2023/09/09 08:21:15;;;;;;;26.40;23.92;;;27.70;99.90;;;;;;5120715;27;20486;-72
2023/09/09 08:23:41;;;;;;;28.67;25.98;;;27.60;99.90;;;;;;5137337;27;20479;-72
2023/09/09 08:26:07;;;;;;;27.88;25.35;;;27.30;99.90;;;;;;5137763;27;20049;-71
2023/09/09 08:28:33;;;;;;;28.42;25.88;;;27.20;99.90;;;;;;5156218;27;20050;-71
2023/09/09 08:30:59;;;;;;;28.58;25.88;;;27.20;99.90;;;;;;5137377;27;20129;-71
2023/09/09 08:33:25;;;;;;;28.73;26.10;;;27.10;99.90;;;;;;5155934;27;20089;-71
2023/09/09 08:35:52;;;;;;;28.48;25.95;;;27.00;99.90;;;;;;5137283;27;20065;-71
2023/09/09 08:38:17;;;;;;;25.90;23.35;;;26.90;99.90;;;;;;5120323;27;20494;-71
2023/09/09 08:40:55;;;;;;;25.05;22.58;;;26.80;99.90;;;;;;5136701;27;20043;-71
2023/09/09 08:44:01;;;;;;;25.27;22.77;;;26.70;99.90;;;;;;5155382;27;20502;-70
2023/09/09 08:46:27;;;;;;;28.13;25.52;;;26.60;99.90;;;;;;5154281;27;20047;-69
2023/09/09 08:48:54;;;;;;;27.10;24.50;;;26.40;99.90;;;;;;5155222;27;20043;-71
2023/09/09 08:51:30;;;;;;;27.30;24.65;;;26.30;99.90;;;;;;5155654;27;20121;-70
2023/09/09 08:53:57;;;;;;;28.75;25.92;;;26.20;99.90;;;;;;5155270;27;20045;-71
2023/09/09 08:56:23;;;;;;;30.95;28.15;;;26.20;99.90;;;;;;5136940;27;20042;-71
2023/09/09 08:58:49;;;;;;;30.92;27.83;;;26.20;99.90;;;;;;5136320;27;20042;-75
2023/09/09 09:01:16;;;;;;;33.72;30.50;;;26.20;99.90;;;;;;5137042;27;20497;-69
2023/09/09 09:03:43;;;;;;;31.83;28.90;;;26.20;99.90;;;;;;5154460;27;20043;-73
2023/09/09 09:06:09;;;;;;;32.90;29.73;;;26.10;99.90;;;;;;5119756;27;20047;-74
2023/09/09 09:08:35;;;;;;;33.22;30.08;;;26.20;99.90;;;;;;5135956;27;20043;-74
2023/09/09 09:11:03;;;;;;;32.63;29.52;;;26.20;99.90;;;;;;5133554;27;20058;-74
2023/09/09 09:13:33;;;;;;;31.27;28.30;;;26.20;99.90;;;;;;5136634;27;20054;-74
2023/09/09 09:16:00;;;;;;;31.90;28.80;;;26.20;99.90;;;;;;5136470;27;20053;-74
2023/09/09 09:18:26;;;;;;;31.90;28.77;;;26.20;99.90;;;;;;5136767;27;20474;-74
2023/09/09 09:20:52;;;;;;;31.35;28.30;;;26.20;99.90;;;;;;5136353;27;20095;-74
2023/09/09 09:23:19;;;;;;;30.97;27.87;;;26.20;99.90;;;;;;5136695;27;20129;-74
2023/09/09 09:25:46;;;;;;;30.17;27.17;;;26.20;99.90;;;;;;5119233;27;20047;-75
2023/09/09 09:28:16;;;;;;;31.00;27.85;;;26.20;99.90;;;;;;5119759;27;20046;-74
2023/09/09 09:30:42;;;;;;;31.48;28.30;;;26.20;99.90;;;;;;5136576;27;20051;-74
2023/09/09 09:33:08;;;;;;;30.80;27.20;;;26.20;99.90;;;;;;5136208;27;20050;-74
2023/09/09 09:35:37;;;;;;;29.83;26.90;;;26.20;99.90;;;;;;5136321;27;20086;-73
2023/09/09 09:38:22;;;;;;;26.02;23.40;;;26.20;99.90;;;;;;5154066;27;20121;-75
2023/09/09 09:41:10;;;;;;;27.10;24.33;;;26.20;99.90;;;;;;5135974;27;20042;-75
2023/09/09 09:43:44;;;;;;;25.70;23.10;;;26.20;99.90;;;;;;5154624;27;20085;-75
2023/09/09 09:46:22;;;;;;;23.57;21.20;;;26.20;99.90;;;;;;5138658;27;20066;-75
2023/09/09 09:48:50;;;;;;;25.40;23.00;;;26.20;99.90;;;;;;5136158;27;20116;-75
2023/09/09 09:51:16;;;;;;;23.77;21.30;;;26.20;99.90;;;;;;5118518;27;20080;-75
2023/09/09 09:53:48;;;;;;;27.23;21.77;;;26.20;99.90;;;;;;5118850;27;20050;-75
2023/09/09 09:56:20;;;;;;;21.90;19.70;;;26.20;99.90;;;;;;5119685;27;20501;-76
2023/09/09 09:58:50;;;;;;;21.90;19.70;;;26.20;99.90;;;;;;5119122;27;20054;-75
2023/09/09 10:01:17;;;;;;;23.20;20.87;;;26.20;99.90;;;;;;5154454;27;20486;-77
2023/09/09 10:03:51;;;;;;;25.90;23.27;;;26.20;99.90;;;;;;5135623;27;20099;-74
2023/09/09 10:06:28;;;;;;;22.10;19.10;;;26.20;99.90;;;;;;5102794;27;20095;-74
2023/09/09 10:09:19;;;;;;;22.23;19.80;;;26.10;99.90;;;;;;5118707;27;20117;-74
2023/09/09 10:11:53;;;;;;;20.30;18.30;;;26.10;99.90;;;;;;5118127;27;20043;-74
2023/09/09 10:14:24;;;;;;;23.85;20.35;;;26.20;99.90;;;;;;5102323;27;20506;-74
2023/09/09 10:16:52;;;;;;;27.33;20.53;;;26.20;99.90;;;;;;5133298;27;20143;-76
2023/09/09 10:19:19;;;;;;;20.67;18.67;;;26.10;99.90;;;;;;5135426;27;20043;-74
2023/09/09 10:21:47;;;;;;;24.50;19.73;;;26.10;99.90;;;;;;5135557;27;20043;-70
2023/09/09 10:24:14;;;;;;;21.23;19.20;;;26.10;99.90;;;;;;5135180;27;20047;-74
2023/09/09 10:26:44;;;;;;;20.60;18.40;;;26.10;99.90;;;;;;5154020;27;20046;-74
2023/09/09 10:29:11;;;;;;;20.80;17.93;;;26.10;99.90;;;;;;5153928;27;20505;-75
2023/09/09 10:31:37;;;;;;;17.13;15.37;;;26.20;99.90;;;;;;5135877;27;20494;-71
2023/09/09 10:34:03;;;;;;;16.57;14.97;;;26.10;99.90;;;;;;5135643;27;20042;-75
2023/09/09 10:36:31;;;;;;;15.30;13.80;;;26.10;99.90;;;;;;5118777;27;20386;-77
2023/09/09 10:38:57;;;;;;;16.47;14.97;;;26.10;99.90;;;;;;5135703;27;20046;-76
2023/09/09 10:41:22;;;;;;;16.67;14.93;;;26.00;99.90;;;;;;5135937;27;20046;-76
2023/09/09 10:43:48;;;;;;;14.50;13.10;;;26.00;99.90;;;;;;5118819;27;20534;-76
2023/09/09 10:46:14;;;;;;;14.47;12.97;;;26.00;99.90;;;;;;5134807;27;20093;-76
2023/09/09 10:48:43;;;;;;;18.37;14.03;;;26.00;99.90;;;;;;5118764;27;20127;-77
2023/09/09 10:51:12;;;;;;;17.40;13.47;;;25.90;99.90;;;;;;5135592;27;20077;-76
2023/09/09 10:53:38;;;;;;;13.33;11.90;;;26.00;99.90;;;;;;5154044;27;20095;-75
2023/09/09 10:56:16;;;;;;;15.57;13.97;;;26.00;99.90;;;;;;5097538;28;20050;-77
2023/09/09 10:58:50;;;;;;;14.13;12.60;;;25.90;99.90;;;;;;5115251;28;20452;-75
2023/09/09 11:01:28;;;;;;;13.40;10.83;;;25.90;99.90;;;;;;5113584;28;20055;-76
2023/09/09 11:03:55;;;;;;;17.57;12.93;;;25.90;99.90;;;;;;5116245;27;20063;-75
2023/09/09 11:06:33;;;;;;;14.67;13.10;;;25.90;99.90;;;;;;5119119;27;20395;-74
2023/09/09 11:09:02;;;;;;;13.23;11.83;;;25.90;99.90;;;;;;5136824;27;20054;-70
2023/09/09 11:11:39;;;;;;;19.37;13.83;;;26.00;99.90;;;;;;5136793;27;20168;-72
2023/09/09 11:14:07;;;;;;;13.10;11.37;;;26.00;99.90;;;;;;5136614;27;20039;-70
2023/09/09 11:16:37;;;;;;;12.03;9.63;;;26.00;99.90;;;;;;5136673;27;20043;-70
2023/09/09 11:19:11;;;;;;;11.20;9.27;;;26.00;99.90;;;;;;5100965;27;20461;-75
2023/09/09 11:21:39;;;;;;;10.57;9.20;;;26.00;99.90;;;;;;5136859;27;20054;-73
2023/09/09 11:24:05;;;;;;;10.03;7.10;;;26.00;99.90;;;;;;5117984;27;20055;-75
2023/09/09 11:26:31;;;;;;;10.73;8.47;;;26.10;99.90;;;;;;5135361;27;20055;-75
2023/09/09 11:29:01;;;;;;;12.73;9.00;;;26.10;99.90;;;;;;5118341;27;20171;-75
2023/09/09 11:31:27;;;;;;;10.97;9.43;;;26.10;99.90;;;;;;5118636;27;20479;-74
2023/09/09 11:33:57;;;;;;;13.57;10.83;;;26.10;99.90;;;;;;5118445;27;20050;-75
2023/09/09 11:36:23;;;;;;;12.67;11.30;;;26.00;99.90;;;;;;5117972;27;20130;-75
2023/09/09 11:38:49;;;;;;;10.60;9.10;;;26.00;99.90;;;;;;5136392;27;20130;-75
2023/09/09 11:41:22;;;;;;;14.47;10.23;;;26.10;99.90;;;;;;5118095;27;20096;-76
2023/09/09 11:44:07;;;;;;;10.85;8.20;;;26.10;99.90;;;;;;5136455;27;20095;-76
2023/09/09 11:46:39;;;;;;;17.50;12.25;;;26.20;99.90;;;;;;5114603;28;20051;-75
2023/09/09 11:49:06;;;;;;;14.83;11.83;;;26.10;99.90;;;;;;5114464;28;20079;-76
2023/09/09 11:51:33;;;;;;;15.40;11.10;;;26.00;99.90;;;;;;5114825;28;20388;-75
2023/09/09 11:54:02;;;;;;;14.37;12.27;;;26.00;99.90;;;;;;5114614;28;20058;-75
2023/09/09 11:56:29;;;;;;;12.67;10.97;;;26.00;99.90;;;;;;5114738;28;20047;-76
2023/09/09 11:58:55;;;;;;;13.47;10.47;;;26.00;99.90;;;;;;5114488;28;20191;-76
2023/09/09 12:01:21;;;;;;;12.40;10.40;;;26.00;99.90;;;;;;5115329;28;20047;-75
2023/09/09 12:03:51;;;;;;;13.53;11.23;;;26.00;99.90;;;;;;5114489;28;20039;-75
2023/09/09 12:06:22;;;;;;;11.63;8.80;;;26.10;99.90;;;;;;5115356;28;20130;-75
2023/09/09 12:08:49;;;;;;;10.83;9.67;;;26.10;99.90;;;;;;5114587;28;20054;-75
2023/09/09 12:11:17;;;;;;;12.27;9.30;;;26.10;99.90;;;;;;5115100;28;20046;-75
2023/09/09 12:13:44;;;;;;;13.07;9.27;;;26.10;99.90;;;;;;5113872;28;20070;-75
2023/09/09 12:16:10;;;;;;;16.00;10.40;;;26.10;99.90;;;;;;5114090;28;20120;-75
2023/09/09 12:18:36;;;;;;;13.27;9.90;;;26.10;99.90;;;;;;5115134;28;20055;-75
2023/09/09 12:21:10;;;;;;;10.43;8.23;;;26.10;99.90;;;;;;5115104;28;20047;-75
2023/09/09 12:23:38;;;;;;;10.63;8.98;;;26.10;99.90;;;;;;5115027;28;20043;-75
2023/09/09 12:26:18;;;;;;;11.23;9.97;;;26.10;99.90;;;;;;5113897;28;20040;-75
2023/09/09 12:28:46;;;;;;;11.60;9.30;;;26.10;99.90;;;;;;5115245;28;20075;-75